Time;durP1;ratioP1;P1;durP2;ratioP2;P2;SDS_P1;SDS_P2;PMS_P1;PMS_P2;Temp;Humidity;BMP_temperature;BMP_pressure;BME280_temperature;BME280_humidity;BME280_pressure;Samples;Min_cycle;Max_cycle;Signal;HPM_P1;HPM_P2
2022/04/06 00:01:38;;;;;;;23.65;6.03;;;8.00;99.90;;;;;;5075564;28;20132;-87
2022/04/06 00:04:03;;;;;;;22.63;6.30;;;8.00;99.90;;;;;;5093577;28;20072;-87
2022/04/06 00:06:29;;;;;;;27.10;7.10;;;8.10;99.90;;;;;;5075561;28;20048;-86
2022/04/06 00:08:55;;;;;;;29.80;8.20;;;8.00;99.90;;;;;;5075715;28;20051;-86
2022/04/06 00:11:21;;;;;;;20.60;6.50;;;8.00;99.90;;;;;;5075594;28;20387;-86
2022/04/06 00:13:48;;;;;;;19.15;5.93;;;8.00;99.90;;;;;;5075778;28;20088;-87
2022/04/06 00:16:14;;;;;;;21.38;6.43;;;8.00;99.90;;;;;;5075515;28;20040;-87
2022/04/06 00:18:39;;;;;;;21.55;7.30;;;8.00;99.90;;;;;;5094106;28;20093;-88
2022/04/06 00:21:05;;;;;;;17.75;6.35;;;8.00;99.90;;;;;;5098333;28;20044;-87
2022/04/06 00:23:30;;;;;;;16.70;5.43;;;8.00;99.90;;;;;;5097661;28;20047;-88
2022/04/06 00:25:56;;;;;;;19.65;6.40;;;8.10;99.90;;;;;;5097831;28;20043;-88
2022/04/06 00:28:22;;;;;;;17.13;6.72;;;8.00;99.90;;;;;;5079917;28;20056;-88
2022/04/06 00:30:48;;;;;;;22.45;6.75;;;8.00;99.90;;;;;;5097671;28;20036;-88
2022/04/06 00:33:14;;;;;;;16.30;7.22;;;8.00;99.90;;;;;;5079368;28;20056;-88
2022/04/06 00:35:39;;;;;;;26.25;6.40;;;8.00;99.90;;;;;;5079316;28;20044;-88
2022/04/06 00:38:07;;;;;;;22.75;7.97;;;8.00;99.90;;;;;;5097606;28;20117;-87
2022/04/06 00:40:34;;;;;;;20.25;8.32;;;8.00;99.90;;;;;;5079550;28;20055;-88
2022/04/06 00:43:04;;;;;;;18.80;7.25;;;8.00;99.90;;;;;;5079621;28;20550;-88
2022/04/06 00:45:30;;;;;;;22.88;7.20;;;8.00;99.90;;;;;;5079053;28;20441;-89
2022/04/06 00:47:56;;;;;;;17.15;6.88;;;8.00;99.90;;;;;;5079062;28;20109;-89
2022/04/06 00:50:23;;;;;;;21.67;7.05;;;8.00;99.90;;;;;;5079277;28;20044;-88
2022/04/06 00:52:55;;;;;;;20.55;7.72;;;8.00;99.90;;;;;;5079002;28;20097;-88
2022/04/06 00:55:23;;;;;;;21.17;8.88;;;8.00;99.90;;;;;;5079110;28;20535;-88
2022/04/06 00:57:49;;;;;;;21.48;7.97;;;8.00;99.90;;;;;;5079290;28;20044;-88
2022/04/06 01:00:15;;;;;;;20.98;7.65;;;8.00;99.90;;;;;;5097157;28;20122;-88
2022/04/06 01:02:41;;;;;;;19.70;7.68;;;8.00;99.90;;;;;;5078811;28;20391;-88
2022/04/06 01:05:08;;;;;;;24.95;8.98;;;8.00;99.90;;;;;;5079059;28;20493;-89
2022/04/06 01:07:34;;;;;;;23.95;7.97;;;8.00;99.90;;;;;;5078690;28;20487;-89
2022/04/06 01:10:00;;;;;;;24.50;7.63;;;8.00;99.90;;;;;;5079011;28;20040;-92
2022/04/06 01:12:27;;;;;;;23.02;8.63;;;8.00;99.90;;;;;;5078648;28;20131;-91
2022/04/06 01:14:54;;;;;;;22.80;8.38;;;8.00;99.90;;;;;;5078713;28;20048;-92
2022/04/06 01:17:20;;;;;;;17.05;6.55;;;8.00;99.90;;;;;;5079290;28;20475;-90
2022/04/06 01:19:51;;;;;;;21.90;8.18;;;8.00;99.90;;;;;;5078735;28;20047;-92
2022/04/06 01:22:20;;;;;;;22.30;7.15;;;8.00;99.90;;;;;;5078785;28;20052;-91
2022/04/06 01:24:47;;;;;;;17.60;6.85;;;8.10;99.90;;;;;;5078992;28;20095;-90
2022/04/06 01:27:14;;;;;;;19.45;7.57;;;8.10;99.90;;;;;;5078499;28;20127;-91
2022/04/06 01:29:40;;;;;;;16.95;6.90;;;8.10;99.90;;;;;;5078473;28;20044;-92
2022/04/06 01:32:17;;;;;;;19.63;6.97;;;8.10;99.90;;;;;;5077461;28;20550;-91
2022/04/06 01:34:44;;;;;;;19.45;6.55;;;8.10;99.90;;;;;;5096575;28;20054;-92
2022/04/06 01:37:11;;;;;;;17.77;5.82;;;8.10;99.90;;;;;;5079031;28;20177;-92
2022/04/06 01:39:39;;;;;;;18.25;6.45;;;8.10;99.90;;;;;;5078637;28;20066;-91
2022/04/06 01:42:06;;;;;;;20.10;6.30;;;8.10;99.90;;;;;;5078213;28;20047;-91
2022/04/06 01:44:32;;;;;;;20.63;6.05;;;8.10;99.90;;;;;;5078403;28;20056;-91
2022/04/06 01:47:00;;;;;;;21.17;5.95;;;8.20;99.90;;;;;;5096534;28;20044;-90
2022/04/06 01:52:13;;;;;;;16.45;6.03;;;8.20;99.90;;;;;;5078250;28;20055;-91
2022/04/06 01:54:51;;;;;;;18.65;5.22;;;8.20;99.90;;;;;;5078008;28;20174;-91
2022/04/06 01:57:17;;;;;;;16.92;6.25;;;8.20;99.90;;;;;;5077852;28;20429;-90
2022/04/06 01:59:43;;;;;;;17.45;5.75;;;8.20;99.90;;;;;;5077951;28;20044;-90
2022/04/06 02:02:12;;;;;;;14.20;5.10;;;8.20;99.90;;;;;;5096156;28;20039;-91
2022/04/06 02:04:38;;;;;;;15.38;4.85;;;8.20;99.90;;;;;;5077995;28;20044;-91
2022/04/06 02:07:05;;;;;;;13.77;4.68;;;8.20;99.90;;;;;;5078287;28;20040;-92
2022/04/06 02:09:31;;;;;;;16.00;5.55;;;8.20;99.90;;;;;;5077973;28;20040;-92
2022/04/06 02:11:56;;;;;;;14.68;4.45;;;8.20;99.90;;;;;;5078073;28;20070;-92
2022/04/06 02:14:23;;;;;;;14.02;4.85;;;8.20;99.90;;;;;;5096002;28;20043;-91
2022/04/06 02:16:49;;;;;;;14.85;4.88;;;8.20;99.90;;;;;;5077969;28;20052;-92
2022/04/06 02:19:15;;;;;;;12.02;4.93;;;8.30;99.90;;;;;;5077475;28;20044;-90
2022/04/06 02:21:41;;;;;;;12.23;4.10;;;8.30;99.90;;;;;;5095715;28;20051;-90
2022/04/06 02:24:07;;;;;;;11.00;4.03;;;8.30;99.90;;;;;;5095545;28;20043;-91
2022/04/06 02:26:33;;;;;;;18.13;5.72;;;8.30;99.90;;;;;;5077242;28;20055;-90
2022/04/06 02:29:00;;;;;;;13.57;3.80;;;8.20;99.90;;;;;;5077469;28;20547;-90
2022/04/06 02:31:25;;;;;;;13.73;3.90;;;8.30;99.90;;;;;;5095488;28;20036;-90
2022/04/06 02:33:51;;;;;;;14.13;3.90;;;8.30;99.90;;;;;;5077428;28;20120;-90
2022/04/06 02:36:17;;;;;;;18.38;4.38;;;8.30;99.90;;;;;;5077204;28;20548;-90
2022/04/06 02:38:44;;;;;;;8.30;3.30;;;8.30;99.90;;;;;;5077907;28;20054;-91
2022/04/06 02:41:09;;;;;;;17.70;4.32;;;8.30;99.90;;;;;;5077093;28;20090;-90
2022/04/06 02:43:35;;;;;;;11.07;3.15;;;8.30;99.90;;;;;;5076894;28;20070;-90
2022/04/06 02:46:02;;;;;;;15.38;3.67;;;8.30;99.90;;;;;;5076936;28;20063;-91
2022/04/06 02:48:27;;;;;;;14.43;3.03;;;8.30;99.90;;;;;;5077429;28;20075;-90
2022/04/06 02:50:53;;;;;;;9.07;3.35;;;8.30;99.90;;;;;;5094937;28;20137;-91
2022/04/06 02:53:19;;;;;;;15.65;3.70;;;8.40;99.90;;;;;;5076835;28;20055;-90
2022/04/06 02:55:45;;;;;;;12.55;3.38;;;8.30;99.90;;;;;;5077172;28;20058;-89
2022/04/06 02:58:11;;;;;;;12.85;3.15;;;8.30;99.90;;;;;;5094956;28;20498;-90
2022/04/06 03:00:37;;;;;;;12.57;3.13;;;8.30;99.90;;;;;;5076814;28;20044;-90
2022/04/06 03:03:03;;;;;;;8.07;2.65;;;8.30;99.90;;;;;;5076910;28;20139;-90
2022/04/06 03:05:29;;;;;;;14.60;2.92;;;8.30;99.90;;;;;;5076705;28;20055;-90
2022/04/06 03:07:54;;;;;;;14.32;3.53;;;8.30;99.90;;;;;;5076503;28;20044;-91
2022/04/06 03:10:20;;;;;;;12.98;3.35;;;8.30;99.90;;;;;;5076746;28;20048;-90
2022/04/06 03:12:46;;;;;;;16.08;4.47;;;8.30;99.90;;;;;;5076294;28;20094;-90
2022/04/06 03:15:12;;;;;;;10.38;3.60;;;8.30;99.90;;;;;;5076555;28;20058;-90
2022/04/06 03:17:38;;;;;;;11.00;3.25;;;8.30;99.90;;;;;;5076347;28;20135;-90
2022/04/06 03:20:05;;;;;;;10.32;3.50;;;8.30;99.90;;;;;;5076085;28;20070;-90
2022/04/06 03:22:31;;;;;;;13.40;3.67;;;8.30;99.90;;;;;;5076562;28;20131;-91
2022/04/06 03:24:57;;;;;;;14.63;4.00;;;8.30;99.90;;;;;;5076351;28;20040;-92
2022/04/06 03:27:23;;;;;;;13.57;3.55;;;8.30;99.90;;;;;;5076520;28;20388;-91
2022/04/06 03:29:48;;;;;;;16.08;4.22;;;8.30;99.90;;;;;;5094560;28;20093;-91
2022/04/06 03:32:14;;;;;;;14.35;4.03;;;8.30;99.90;;;;;;5076305;28;20080;-91
2022/04/06 03:34:40;;;;;;;11.15;3.70;;;8.30;99.90;;;;;;5094263;28;20073;-91
2022/04/06 03:37:06;;;;;;;17.23;4.47;;;8.30;99.90;;;;;;5076281;28;20043;-91
2022/04/06 03:39:32;;;;;;;11.98;4.72;;;8.20;99.90;;;;;;5094244;28;20079;-90
2022/04/06 03:41:58;;;;;;;16.83;4.55;;;8.20;99.90;;;;;;5076134;28;20074;-90
2022/04/06 03:44:23;;;;;;;18.52;4.68;;;8.20;99.90;;;;;;5076178;28;20047;-90
2022/04/06 03:46:49;;;;;;;13.85;4.25;;;8.20;99.90;;;;;;5076053;28;20548;-90
2022/04/06 03:49:16;;;;;;;14.20;4.97;;;8.30;99.90;;;;;;5075756;28;20074;-90
2022/04/06 03:51:42;;;;;;;15.80;4.60;;;8.20;99.90;;;;;;5075646;28;20123;-91
2022/04/06 03:54:08;;;;;;;17.98;5.20;;;8.20;99.90;;;;;;5093628;28;20127;-91
2022/04/06 03:56:34;;;;;;;20.45;5.78;;;8.20;99.90;;;;;;5076116;28;20043;-90
2022/04/06 03:58:59;;;;;;;12.30;4.35;;;8.20;99.90;;;;;;5076127;28;20048;-91
2022/04/06 04:01:25;;;;;;;17.50;4.53;;;8.20;99.90;;;;;;5094186;28;20032;-91
2022/04/06 04:03:51;;;;;;;15.52;5.40;;;8.20;99.90;;;;;;5075874;28;20519;-91
2022/04/06 04:06:16;;;;;;;14.38;5.03;;;8.20;99.90;;;;;;5059286;28;20051;-92
2022/04/06 04:08:42;;;;;;;14.52;5.03;;;8.20;99.90;;;;;;5076017;28;20055;-90
2022/04/06 04:11:08;;;;;;;14.55;4.28;;;8.20;99.90;;;;;;5075856;28;20044;-90
2022/04/06 04:13:34;;;;;;;14.82;4.90;;;8.20;99.90;;;;;;5075728;28;20093;-90
2022/04/06 04:16:00;;;;;;;18.48;5.15;;;8.20;99.90;;;;;;5093834;28;20075;-91
2022/04/06 04:18:25;;;;;;;12.98;5.50;;;8.20;99.90;;;;;;5075774;28;20075;-90
2022/04/06 04:21:31;;;;;;;15.23;5.53;;;8.20;99.90;;;;;;5075948;28;20052;-89
2022/04/06 04:23:37;;;;;;;19.35;5.95;;;8.20;99.90;;;;;;5075217;28;20139;-90
2022/04/06 04:26:03;;;;;;;20.15;5.32;;;8.20;99.90;;;;;;5075875;28;20134;-91
2022/04/06 04:28:28;;;;;;;14.55;5.38;;;8.20;99.90;;;;;;5075700;28;20101;-90
2022/04/06 04:30:54;;;;;;;14.38;5.70;;;8.20;99.90;;;;;;5075358;28;20047;-90
2022/04/06 04:33:20;;;;;;;24.48;6.20;;;8.10;99.90;;;;;;5075834;28;20125;-91
2022/04/06 04:35:45;;;;;;;18.40;6.03;;;8.20;99.90;;;;;;5093769;28;20131;-90
2022/04/06 04:38:11;;;;;;;18.48;5.68;;;8.10;99.90;;;;;;5075508;28;20050;-90
2022/04/06 04:40:37;;;;;;;16.75;6.05;;;8.10;99.90;;;;;;5075529;28;20557;-90
2022/04/06 04:43:03;;;;;;;19.00;5.93;;;8.10;99.90;;;;;;5075803;28;20052;-89
2022/04/06 04:45:29;;;;;;;18.15;5.97;;;8.10;99.90;;;;;;5075356;28;20135;-90
2022/04/06 04:47:54;;;;;;;24.77;7.18;;;8.10;99.90;;;;;;5075333;28;20052;-90
2022/04/06 04:50:20;;;;;;;23.73;7.22;;;8.10;99.90;;;;;;5075646;28;20036;-90
2022/04/06 04:52:46;;;;;;;17.50;7.78;;;8.10;99.90;;;;;;5075401;28;20048;-89
2022/04/06 04:55:12;;;;;;;22.60;7.57;;;8.10;99.90;;;;;;5075597;28;20093;-89
2022/04/06 04:57:37;;;;;;;20.67;6.70;;;8.00;99.90;;;;;;5075531;28;20139;-90
2022/04/06 05:00:08;;;;;;;19.55;6.03;;;8.10;99.90;;;;;;5075529;28;20044;-90
2022/04/06 05:02:36;;;;;;;25.73;6.13;;;8.00;99.90;;;;;;5075271;28;20040;-90
2022/04/06 05:05:03;;;;;;;18.35;6.78;;;8.10;99.90;;;;;;5076334;28;20048;-91
2022/04/06 05:07:28;;;;;;;20.17;6.30;;;8.00;99.90;;;;;;5079250;28;20062;-90
2022/04/06 05:09:54;;;;;;;16.30;5.32;;;8.00;99.90;;;;;;5078448;28;20044;-90
2022/04/06 05:12:21;;;;;;;19.65;5.13;;;8.00;99.90;;;;;;5078338;28;20044;-90
2022/04/06 05:14:46;;;;;;;20.45;6.43;;;8.00;99.90;;;;;;5078103;28;20502;-89
2022/04/06 05:17:12;;;;;;;22.70;7.15;;;8.00;99.90;;;;;;5096733;28;20048;-91
2022/04/06 05:19:37;;;;;;;23.92;6.53;;;8.00;99.90;;;;;;5097051;28;20071;-90
2022/04/06 05:22:04;;;;;;;27.73;7.07;;;8.00;99.90;;;;;;5078580;28;20056;-90
2022/04/06 05:24:30;;;;;;;18.65;6.78;;;8.00;99.90;;;;;;5078313;28;20040;-91
2022/04/06 05:26:55;;;;;;;27.08;7.20;;;8.00;99.90;;;;;;5078695;28;20130;-92
2022/04/06 05:29:21;;;;;;;21.65;6.68;;;8.00;99.90;;;;;;5078773;28;20047;-91
2022/04/06 05:31:47;;;;;;;21.08;6.20;;;8.00;99.90;;;;;;5078690;28;20138;-91
2022/04/06 05:34:12;;;;;;;24.75;6.93;;;8.00;99.90;;;;;;5078600;28;20402;-90
2022/04/06 05:36:38;;;;;;;22.05;8.48;;;8.00;99.90;;;;;;5078522;28;20051;-89
2022/04/06 05:39:04;;;;;;;20.17;6.95;;;8.00;99.90;;;;;;5096183;28;20376;-88
2022/04/06 05:41:30;;;;;;;20.90;6.70;;;8.00;99.90;;;;;;5096357;28;20044;-89
2022/04/06 05:43:56;;;;;;;22.63;7.55;;;8.00;99.90;;;;;;5078358;28;20479;-89
2022/04/06 05:46:21;;;;;;;20.00;7.32;;;8.00;99.90;;;;;;5095782;28;20395;-89
2022/04/06 05:48:47;;;;;;;20.20;6.78;;;8.00;99.90;;;;;;5078040;28;20048;-89
2022/04/06 05:51:13;;;;;;;16.23;6.68;;;8.00;99.90;;;;;;5078115;28;20539;-89
2022/04/06 05:53:38;;;;;;;24.17;7.55;;;8.00;99.90;;;;;;5077717;28;20048;-89
2022/04/06 05:56:04;;;;;;;21.33;6.60;;;8.00;99.90;;;;;;5095951;28;20040;-90
2022/04/06 05:58:30;;;;;;;21.65;6.20;;;8.00;99.90;;;;;;5095878;28;20036;-90
2022/04/06 06:00:56;;;;;;;24.60;6.47;;;8.00;99.90;;;;;;5077761;28;20090;-89
2022/04/06 06:03:21;;;;;;;21.35;6.15;;;8.00;99.90;;;;;;5077791;28;20087;-89
2022/04/06 06:05:47;;;;;;;22.65;7.03;;;8.00;99.90;;;;;;5077767;28;20051;-89
2022/04/06 06:08:12;;;;;;;23.27;6.55;;;8.00;99.90;;;;;;5077691;28;20044;-89
2022/04/06 06:10:38;;;;;;;22.05;6.38;;;8.00;99.90;;;;;;5095634;28;20047;-90
2022/04/06 06:13:04;;;;;;;21.15;7.38;;;8.00;99.90;;;;;;5095656;28;20048;-89
2022/04/06 06:15:29;;;;;;;23.92;6.03;;;8.00;99.90;;;;;;5077838;28;20044;-90
2022/04/06 06:17:55;;;;;;;23.40;6.32;;;8.00;99.90;;;;;;5076960;28;20075;-89
2022/04/06 06:20:20;;;;;;;19.05;6.55;;;8.00;99.90;;;;;;5077748;28;20098;-91
2022/04/06 06:22:46;;;;;;;22.02;5.32;;;8.00;99.90;;;;;;5077435;28;20077;-91
2022/04/06 06:25:12;;;;;;;23.08;6.32;;;8.00;99.90;;;;;;5077327;28;20117;-89
2022/04/06 06:27:42;;;;;;;18.92;5.95;;;8.10;99.90;;;;;;5095687;28;20051;-89
2022/04/06 06:30:11;;;;;;;27.35;6.68;;;8.00;99.90;;;;;;5095278;28;20062;-88
2022/04/06 06:32:36;;;;;;;18.88;6.03;;;8.00;99.90;;;;;;5093790;28;20416;-86
2022/04/06 06:35:02;;;;;;;23.00;6.07;;;8.10;99.90;;;;;;5065190;28;20040;-90
2022/04/06 06:37:28;;;;;;;17.95;5.50;;;8.10;99.90;;;;;;5076881;28;20048;-90
2022/04/06 06:39:54;;;;;;;22.08;6.47;;;8.10;99.90;;;;;;5093800;28;20063;-89
2022/04/06 06:42:20;;;;;;;18.52;5.40;;;8.10;99.90;;;;;;5076718;28;20048;-91
2022/04/06 06:44:46;;;;;;;21.77;5.90;;;8.10;99.90;;;;;;5076866;28;20087;-91
2022/04/06 06:47:12;;;;;;;22.42;5.90;;;8.10;99.90;;;;;;5094089;28;20133;-89
2022/04/06 06:49:40;;;;;;;15.52;4.82;;;8.10;99.90;;;;;;5094765;28;20048;-89
2022/04/06 06:52:06;;;;;;;25.42;6.40;;;8.10;99.90;;;;;;5076379;28;20093;-88
2022/04/06 06:54:32;;;;;;;18.55;5.13;;;8.10;99.90;;;;;;5076490;28;20043;-89
2022/04/06 06:56:57;;;;;;;23.33;5.85;;;8.10;99.90;;;;;;5076915;28;20108;-89
2022/04/06 06:59:23;;;;;;;24.55;4.85;;;8.10;99.90;;;;;;5076606;28;20043;-90
2022/04/06 07:01:49;;;;;;;19.60;5.35;;;8.10;99.90;;;;;;5076627;28;20059;-89
2022/04/06 07:04:14;;;;;;;17.98;5.03;;;8.10;99.90;;;;;;5076335;28;20040;-92
2022/04/06 07:06:40;;;;;;;18.73;4.57;;;8.10;99.90;;;;;;5076473;28;20104;-90
2022/04/06 07:09:06;;;;;;;16.75;4.85;;;8.10;99.90;;;;;;5094586;28;20036;-88
2022/04/06 07:11:31;;;;;;;18.02;5.05;;;8.10;99.90;;;;;;5076388;28;20130;-88
2022/04/06 07:13:57;;;;;;;18.52;6.30;;;8.10;99.90;;;;;;5076169;28;20044;-88
2022/04/06 07:16:22;;;;;;;18.95;4.78;;;8.10;99.90;;;;;;5076422;28;20040;-91
2022/04/06 07:18:48;;;;;;;15.50;4.85;;;8.10;99.90;;;;;;5076472;28;20477;-89
2022/04/06 07:21:14;;;;;;;26.73;5.78;;;8.00;99.90;;;;;;5094102;28;20372;-92
2022/04/06 07:23:40;;;;;;;22.20;4.82;;;8.10;99.90;;;;;;5076026;28;20044;-89
2022/04/06 07:26:05;;;;;;;28.63;6.43;;;8.10;99.90;;;;;;5075897;28;20065;-89
2022/04/06 07:28:32;;;;;;;24.83;6.80;;;8.10;99.90;;;;;;5075440;28;20130;-90
2022/04/06 07:30:59;;;;;;;19.15;5.40;;;8.10;99.90;;;;;;5075992;28;20047;-84
2022/04/06 07:33:25;;;;;;;22.40;4.88;;;8.10;99.90;;;;;;5075954;28;20080;-89
2022/04/06 07:35:50;;;;;;;15.02;4.95;;;8.10;99.90;;;;;;5075408;28;20124;-89
2022/04/06 07:38:18;;;;;;;21.77;5.60;;;8.10;99.90;;;;;;5069529;28;20044;-92
2022/04/06 07:40:43;;;;;;;20.85;5.50;;;8.10;99.90;;;;;;5055992;28;20055;-91
2022/04/06 07:43:10;;;;;;;18.23;5.50;;;8.10;99.90;;;;;;5055457;28;20045;-89
2022/04/06 07:45:37;;;;;;;18.75;5.55;;;8.10;99.90;;;;;;5055593;28;20126;-91
2022/04/06 07:48:04;;;;;;;16.58;5.35;;;8.10;99.90;;;;;;5055725;28;20062;-89
2022/04/06 07:50:30;;;;;;;14.77;4.50;;;8.00;99.90;;;;;;5064327;28;20544;-90
2022/04/06 07:52:55;;;;;;;17.60;4.85;;;8.10;99.90;;;;;;5072014;28;20044;-93
2022/04/06 07:55:21;;;;;;;15.77;4.45;;;8.10;99.90;;;;;;5072066;28;20147;-89
2022/04/06 07:57:47;;;;;;;16.33;4.60;;;8.10;99.90;;;;;;5072146;28;20045;-90
2022/04/06 08:00:18;;;;;;;17.42;4.78;;;8.10;99.90;;;;;;5072254;28;20040;-90
2022/04/06 08:02:45;;;;;;;16.55;4.72;;;8.10;99.90;;;;;;5072282;28;20496;-90
2022/04/06 08:05:10;;;;;;;16.08;4.10;;;8.10;99.90;;;;;;5072539;28;20055;-89
2022/04/06 08:07:39;;;;;;;15.65;4.78;;;8.10;99.90;;;;;;5068714;28;20036;-89
2022/04/06 08:10:08;;;;;;;15.65;3.90;;;8.20;99.90;;;;;;5061338;28;20453;-89
2022/04/06 08:12:34;;;;;;;13.70;4.13;;;8.20;99.90;;;;;;5063766;28;20040;-89
2022/04/06 08:15:00;;;;;;;16.38;3.83;;;8.20;99.90;;;;;;5075544;28;20066;-92
2022/04/06 08:17:26;;;;;;;21.92;4.65;;;8.20;99.90;;;;;;5070773;28;20040;-92
2022/04/06 08:19:52;;;;;;;19.17;4.70;;;8.20;99.90;;;;;;5067315;28;20407;-92
2022/04/06 08:22:29;;;;;;;23.90;5.38;;;8.30;99.90;;;;;;5076679;28;20054;-92
2022/04/06 08:25:14;;;;;;;16.88;4.25;;;8.30;99.90;;;;;;5075575;28;20130;-91
2022/04/06 08:27:44;;;;;;;16.95;4.72;;;8.30;99.90;;;;;;5057940;28;20154;-92
2022/04/06 08:30:12;;;;;;;18.17;3.90;;;8.30;99.90;;;;;;5075347;28;20063;-92
2022/04/06 08:32:38;;;;;;;13.65;4.30;;;8.30;99.90;;;;;;5073629;28;20044;-93
2022/04/06 08:35:08;;;;;;;13.82;4.78;;;8.40;99.90;;;;;;5075953;28;20130;-92
2022/04/06 08:37:39;;;;;;;21.40;4.60;;;8.40;99.90;;;;;;5068535;28;20059;-94
2022/04/06 08:40:14;;;;;;;17.08;5.18;;;8.40;99.90;;;;;;5063539;28;20040;-91
2022/04/06 08:43:03;;;;;;;17.25;3.95;;;8.50;99.90;;;;;;5059160;28;20062;-89
2022/04/06 08:49:24;;;;;;;15.70;4.03;;;8.60;99.90;;;;;;4968578;28;20154;-85
2022/04/06 08:51:53;;;;;;;12.48;3.78;;;8.60;99.90;;;;;;4960424;28;20133;-85
2022/04/06 08:54:19;;;;;;;21.90;4.88;;;8.60;99.90;;;;;;4960258;28;20050;-85
2022/04/06 08:56:45;;;;;;;14.10;3.55;;;8.70;99.90;;;;;;4993027;28;20486;-93
2022/04/06 08:59:12;;;;;;;21.63;4.07;;;8.60;99.90;;;;;;4993059;28;20043;-82
2022/04/06 09:01:37;;;;;;;17.40;5.18;;;8.70;99.90;;;;;;4960646;28;20105;-83
2022/04/06 09:04:06;;;;;;;12.57;4.28;;;8.70;99.90;;;;;;4958999;28;20455;-86
2022/04/06 09:06:44;;;;;;;18.40;4.55;;;8.80;99.90;;;;;;4959416;28;20516;-86
2022/04/06 09:09:20;;;;;;;15.73;3.67;;;8.90;99.90;;;;;;4973025;28;20043;-85
2022/04/06 09:11:49;;;;;;;12.50;3.20;;;8.90;99.90;;;;;;4972293;28;20051;-84
2022/04/06 09:14:31;;;;;;;16.35;3.47;;;9.10;99.90;;;;;;4941050;29;20077;-83
2022/04/06 09:17:23;;;;;;;15.30;3.28;;;9.20;99.90;;;;;;4972823;28;20047;-87
2022/04/06 09:19:52;;;;;;;13.15;3.67;;;9.20;99.90;;;;;;4952767;28;20055;-85
2022/04/06 09:22:18;;;;;;;17.65;3.55;;;9.30;99.90;;;;;;4956862;28;20055;-84
2022/04/06 09:24:47;;;;;;;13.90;4.60;;;9.40;99.90;;;;;;4959056;28;20051;-87
2022/04/06 09:27:13;;;;;;;13.98;4.03;;;9.40;99.90;;;;;;4973494;28;20054;-82
2022/04/06 09:29:48;;;;;;;16.45;3.88;;;9.50;99.90;;;;;;4976955;28;20043;-85
2022/04/06 09:32:14;;;;;;;18.33;4.55;;;9.50;99.90;;;;;;4958910;28;20077;-83
2022/04/06 09:34:42;;;;;;;19.55;4.55;;;9.60;99.90;;;;;;4959666;28;20482;-90
2022/04/06 09:37:30;;;;;;;15.10;5.47;;;9.70;99.90;;;;;;4959401;28;20178;-91
2022/04/06 09:40:08;;;;;;;13.35;3.75;;;9.70;99.90;;;;;;4959516;28;20049;-87
2022/04/06 09:42:34;;;;;;;12.38;3.72;;;9.70;99.90;;;;;;5040317;23;20054;-87
2022/04/06 09:47:58;;;;;;;13.98;4.15;;;9.70;99.90;;;;;;5014474;28;20089;-86
2022/04/06 09:50:54;;;;;;;14.43;3.58;;;9.70;99.90;;;;;;5014380;28;20048;-91
2022/04/06 09:53:34;;;;;;;13.13;3.28;;;9.70;99.90;;;;;;4979043;28;20092;-87
2022/04/06 09:56:22;;;;;;;13.50;3.03;;;9.70;99.90;;;;;;5013229;28;20124;-86
2022/04/06 09:59:03;;;;;;;17.73;3.45;;;9.60;99.90;;;;;;5013507;28;20054;-85
2022/04/06 10:01:35;;;;;;;13.80;3.33;;;9.70;99.90;;;;;;4998173;28;20133;-86
2022/04/06 10:04:06;;;;;;;12.00;3.60;;;9.70;99.90;;;;;;5014145;28;20493;-83
2022/04/06 10:06:39;;;;;;;12.43;3.95;;;9.70;99.90;;;;;;5014675;28;20101;-89
2022/04/06 10:09:11;;;;;;;11.65;3.95;;;9.80;99.90;;;;;;5013968;28;20132;-89
2022/04/06 10:11:38;;;;;;;15.93;4.45;;;9.80;99.90;;;;;;4997792;28;20077;-91
2022/04/06 10:14:09;;;;;;;10.35;3.75;;;9.90;99.90;;;;;;5014105;28;20057;-91
2022/04/06 10:16:36;;;;;;;8.45;3.70;;;10.00;99.90;;;;;;5014073;28;20059;-86
2022/04/06 10:19:05;;;;;;;15.90;5.18;;;9.90;99.90;;;;;;5027286;23;20091;-89
2022/04/06 10:21:43;;;;;;;15.40;4.07;;;10.00;99.90;;;;;;5017674;28;20053;-93
2022/04/06 10:24:39;;;;;;;14.02;3.97;;;10.00;99.90;;;;;;5017611;28;20546;-87
2022/04/06 10:27:16;;;;;;;15.05;3.97;;;10.10;99.90;;;;;;5017290;28;20382;-86
2022/04/06 10:30:09;;;;;;;14.82;4.72;;;10.20;99.90;;;;;;5017856;28;20498;-88
2022/04/06 10:32:36;;;;;;;11.48;3.88;;;10.20;99.90;;;;;;5033695;28;20045;-91
2022/04/06 10:35:25;;;;;;;13.30;3.72;;;10.20;99.90;;;;;;5017311;28;20091;-86
2022/04/06 10:37:57;;;;;;;13.80;3.75;;;10.30;99.90;;;;;;5017269;28;20041;-87
2022/04/06 10:40:24;;;;;;;12.18;3.58;;;10.30;99.90;;;;;;5033886;28;20400;-86
2022/04/06 10:42:51;;;;;;;16.55;3.70;;;10.40;99.90;;;;;;5017210;28;20506;-91
2022/04/06 10:45:26;;;;;;;13.88;3.70;;;10.40;99.90;;;;;;5017396;28;20132;-88
2022/04/06 10:48:13;;;;;;;16.98;5.43;;;10.50;99.90;;;;;;5033515;28;20054;-88
2022/04/06 10:50:43;;;;;;;20.48;4.55;;;10.50;99.90;;;;;;5017076;28;20057;-89
2022/04/06 10:53:31;;;;;;;20.45;4.68;;;10.60;99.90;;;;;;5016932;28;20478;-86
2022/04/06 10:55:58;;;;;;;17.55;4.10;;;10.60;99.90;;;;;;5016749;28;20061;-91
2022/04/06 10:58:26;;;;;;;13.38;4.45;;;10.70;99.90;;;;;;5016763;28;20041;-92
2022/04/06 11:01:17;;;;;;;17.25;4.45;;;10.60;99.90;;;;;;5016922;28;20041;-92
2022/04/06 11:03:56;;;;;;;17.20;4.75;;;10.70;99.90;;;;;;5016383;28;20083;-91
2022/04/06 11:06:41;;;;;;;11.20;3.72;;;10.70;99.90;;;;;;5016812;28;20508;-92
2022/04/06 11:12:21;;;;;;;16.40;4.88;;;10.70;99.90;;;;;;5016448;28;20057;-95
2022/04/06 11:15:00;;;;;;;16.40;4.10;;;10.70;99.90;;;;;;5016796;28;20053;-91
2022/04/06 11:17:34;;;;;;;19.40;4.68;;;10.70;99.90;;;;;;5016628;28;20049;-90
2022/04/06 11:20:16;;;;;;;19.85;5.05;;;10.80;99.90;;;;;;5032624;28;20069;-88
2022/04/06 11:22:44;;;;;;;15.13;4.78;;;10.80;99.90;;;;;;5016317;28;20076;-87
2022/04/06 11:25:14;;;;;;;13.45;4.63;;;10.90;99.90;;;;;;5033998;28;20049;-87
2022/04/06 11:27:42;;;;;;;17.38;4.18;;;11.00;99.90;;;;;;5033811;28;20595;-88
2022/04/06 11:30:15;;;;;;;14.60;4.32;;;11.10;99.90;;;;;;5016193;28;20041;-88
2022/04/06 11:32:45;;;;;;;21.25;3.97;;;11.10;99.90;;;;;;5016134;28;20132;-87
2022/04/06 11:35:12;;;;;;;17.77;4.70;;;11.20;99.90;;;;;;5016450;28;20124;-88
2022/04/06 11:37:41;;;;;;;16.92;4.43;;;11.20;99.90;;;;;;5016435;28;20049;-89
2022/04/06 11:40:08;;;;;;;16.00;4.00;;;11.30;99.90;;;;;;5016082;28;20049;-87
2022/04/06 11:42:34;;;;;;;18.15;4.55;;;11.40;99.90;;;;;;5016279;28;20492;-88
2022/04/06 11:44:59;;;;;;;10.88;3.60;;;11.40;99.90;;;;;;5015898;28;20044;-88
2022/04/06 11:47:29;;;;;;;22.30;4.40;;;11.50;99.90;;;;;;5016159;28;20088;-88
2022/04/06 11:49:55;;;;;;;18.35;4.10;;;11.60;99.90;;;;;;5015855;28;20076;-88
2022/04/06 11:52:21;;;;;;;18.63;4.60;;;11.70;99.90;;;;;;5032392;28;20065;-87
2022/04/06 11:54:55;;;;;;;12.80;3.53;;;11.90;99.90;;;;;;5015879;28;20524;-87
2022/04/06 11:57:37;;;;;;;15.25;4.13;;;12.00;99.90;;;;;;5015865;28;20055;-87
2022/04/06 12:00:08;;;;;;;12.70;3.60;;;12.10;99.90;;;;;;5015790;28;20041;-87
2022/04/06 12:02:58;;;;;;;14.88;4.15;;;12.10;99.90;;;;;;5016037;28;20041;-87
2022/04/06 12:05:24;;;;;;;18.67;5.10;;;12.10;99.90;;;;;;5016041;28;20140;-87
2022/04/06 12:08:12;;;;;;;14.63;3.40;;;12.10;99.90;;;;;;5015642;28;20556;-86
2022/04/06 12:10:48;;;;;;;12.43;3.95;;;12.20;99.90;;;;;;5015738;28;20042;-87
2022/04/06 12:13:14;;;;;;;17.63;4.25;;;12.10;99.90;;;;;;5015705;28;20084;-89
2022/04/06 12:15:44;;;;;;;16.65;4.82;;;12.10;99.90;;;;;;5015103;28;20041;-86
2022/04/06 12:18:10;;;;;;;19.38;4.40;;;12.00;99.90;;;;;;5015872;28;20049;-86
2022/04/06 12:20:36;;;;;;;12.20;3.70;;;12.00;99.90;;;;;;5015447;28;20045;-86
2022/04/06 12:23:03;;;;;;;19.33;4.90;;;12.00;99.90;;;;;;5015596;28;20045;-87
2022/04/06 12:25:31;;;;;;;18.35;4.63;;;12.10;99.90;;;;;;5015740;28;20107;-87
2022/04/06 12:28:10;;;;;;;22.23;5.10;;;12.00;99.90;;;;;;5015425;28;20091;-86
2022/04/06 12:31:01;;;;;;;18.25;4.57;;;12.00;99.90;;;;;;5031771;28;20053;-86
2022/04/06 12:33:44;;;;;;;18.30;4.90;;;12.00;99.90;;;;;;5015350;28;20111;-86
2022/04/06 12:36:27;;;;;;;17.27;5.68;;;12.10;99.90;;;;;;5015436;28;20484;-87
2022/04/06 13:40:23;;;;;;;13.40;4.35;;;12.30;99.90;;;;;;5411314;23;20048;-84
2022/04/06 13:45:54;;;;;;;18.95;3.80;;;12.10;99.90;;;;;;4881511;29;20060;-87
2022/04/06 14:15:00;;;;;;;9.63;2.65;;;11.70;99.90;;;;;;5766266;23;20309;-87
2022/04/06 16:25:03;;;;;;;12.45;4.65;;;10.50;99.90;;;;;;4860402;29;20175;-89
2022/04/06 16:30:18;;;;;;;15.52;4.78;;;10.40;99.90;;;;;;5006288;23;20592;-91
2022/04/06 16:32:45;;;;;;;15.35;4.82;;;10.40;99.90;;;;;;4881444;29;20402;-91
2022/04/06 17:58:04;;;;;;;12.60;7.50;;;9.80;99.90;;;;;;5875540;23;20109;-90
2022/04/06 18:00:31;;;;;;;15.00;7.20;;;9.80;99.90;;;;;;4902464;29;20522;-90
2022/04/06 18:02:57;;;;;;;12.00;7.88;;;9.80;99.90;;;;;;4902621;29;20500;-91
2022/04/06 18:05:23;;;;;;;13.77;7.85;;;9.80;99.90;;;;;;4902547;29;20487;-91
2022/04/06 18:39:03;;;;;;;14.93;5.95;;;9.70;99.90;;;;;;4934968;23;20059;-89
2022/04/06 18:41:29;;;;;;;12.18;4.78;;;9.70;99.90;;;;;;4883058;29;20048;-89